Time;durP1;ratioP1;P1;durP2;ratioP2;P2;SDS_P1;SDS_P2;PMS_P1;PMS_P2;Temp;Humidity;BMP_temperature;BMP_pressure;BME280_temperature;BME280_humidity;BME280_pressure;Samples;Min_cycle;Max_cycle;Signal;HPM_P1;HPM_P2
2022/03/20 00:00:42;;;;;;;5.32;1.00;;;5.60;85.10;;;;;;4988125;28;20018;-89
2022/03/20 00:03:10;;;;;;;4.25;1.13;;;5.60;85.30;;;;;;4980196;28;20034;-88
2022/03/20 00:05:38;;;;;;;4.80;1.10;;;5.60;85.70;;;;;;4997900;28;20023;-88
2022/03/20 00:08:11;;;;;;;6.53;1.48;;;5.60;86.00;;;;;;4981887;28;20047;-88
2022/03/20 00:10:42;;;;;;;5.05;1.77;;;5.60;86.20;;;;;;4981090;28;20078;-88
2022/03/20 00:13:09;;;;;;;8.20;2.35;;;5.50;86.30;;;;;;4988515;28;20118;-88
2022/03/20 00:15:36;;;;;;;11.07;2.47;;;5.50;86.70;;;;;;4988524;28;20030;-88
2022/03/20 00:18:02;;;;;;;7.60;2.28;;;5.40;87.40;;;;;;4993953;28;20049;-88
2022/03/20 00:20:32;;;;;;;7.25;2.47;;;5.40;87.60;;;;;;4989178;28;20023;-88
2022/03/20 00:22:57;;;;;;;9.23;2.30;;;5.40;87.70;;;;;;4984056;28;20125;-88
2022/03/20 00:25:23;;;;;;;7.13;2.58;;;5.30;88.20;;;;;;4981382;28;20455;-89
2022/03/20 00:27:48;;;;;;;6.65;2.20;;;5.30;88.50;;;;;;4993924;28;20489;-88
2022/03/20 00:30:14;;;;;;;5.53;2.25;;;5.30;88.70;;;;;;4994398;28;20101;-88
2022/03/20 00:32:40;;;;;;;10.98;3.00;;;5.20;89.10;;;;;;4984202;28;20023;-88
2022/03/20 00:35:06;;;;;;;6.82;2.88;;;5.20;89.50;;;;;;4989489;28;20031;-88
2022/03/20 00:37:31;;;;;;;6.57;3.58;;;5.10;89.70;;;;;;4983643;28;20046;-88
2022/03/20 00:39:57;;;;;;;7.22;3.15;;;5.10;90.10;;;;;;4992793;28;20097;-89
2022/03/20 00:42:22;;;;;;;10.43;4.85;;;5.10;90.10;;;;;;4994108;28;20023;-89
2022/03/20 00:44:48;;;;;;;9.90;3.97;;;5.10;90.30;;;;;;4992595;28;20030;-88
2022/03/20 00:47:13;;;;;;;10.05;4.63;;;5.10;90.50;;;;;;4993462;28;20509;-88
2022/03/20 00:49:41;;;;;;;10.27;4.68;;;5.10;90.60;;;;;;4993272;28;20034;-88
2022/03/20 00:52:06;;;;;;;10.57;5.15;;;5.00;90.60;;;;;;4991645;28;20406;-88
2022/03/20 00:54:32;;;;;;;9.77;3.95;;;5.00;90.90;;;;;;4986489;28;20124;-89
2022/03/20 00:56:58;;;;;;;10.77;4.35;;;4.90;90.90;;;;;;4990584;28;20121;-89
2022/03/20 00:59:24;;;;;;;8.35;4.07;;;4.90;91.20;;;;;;4991649;28;20125;-89
2022/03/20 01:01:49;;;;;;;8.55;4.50;;;4.80;91.40;;;;;;4990829;28;20105;-88
2022/03/20 01:04:16;;;;;;;9.73;3.88;;;4.80;91.80;;;;;;4987513;28;20077;-89
2022/03/20 01:06:42;;;;;;;8.68;3.92;;;4.80;91.90;;;;;;4991990;28;20498;-88
2022/03/20 01:09:07;;;;;;;8.30;3.38;;;4.70;92.10;;;;;;4993700;28;20015;-89
2022/03/20 01:11:34;;;;;;;9.30;3.80;;;4.60;92.30;;;;;;4988371;28;20045;-89
2022/03/20 01:13:59;;;;;;;8.98;3.83;;;4.60;92.50;;;;;;4992375;28;20093;-88
2022/03/20 01:16:25;;;;;;;9.93;3.42;;;4.60;92.90;;;;;;4986503;28;20023;-88
2022/03/20 01:18:51;;;;;;;9.23;3.65;;;4.50;92.90;;;;;;4981663;28;20446;-89
2022/03/20 01:21:16;;;;;;;8.88;4.43;;;4.50;93.20;;;;;;4979162;28;20476;-89
2022/03/20 01:23:42;;;;;;;13.32;5.25;;;4.50;93.30;;;;;;4985132;28;20042;-88
2022/03/20 01:26:09;;;;;;;12.48;6.57;;;4.50;94.00;;;;;;4978256;28;20019;-89
2022/03/20 01:28:34;;;;;;;11.55;6.30;;;4.50;94.30;;;;;;4987541;28;20033;-88
2022/03/20 01:31:00;;;;;;;15.43;7.25;;;4.50;94.40;;;;;;4988722;28;20493;-89
2022/03/20 01:33:25;;;;;;;15.57;6.35;;;4.50;94.90;;;;;;4990143;28;20372;-89
2022/03/20 01:35:52;;;;;;;16.55;7.38;;;4.50;95.00;;;;;;4983536;28;20378;-89
2022/03/20 01:38:20;;;;;;;12.95;6.72;;;4.50;94.90;;;;;;4984290;28;20039;-89
2022/03/20 01:40:49;;;;;;;16.55;7.63;;;4.50;95.30;;;;;;4983505;28;21042;-88
2022/03/20 01:43:16;;;;;;;17.65;7.05;;;4.50;95.40;;;;;;4992797;28;20034;-89
2022/03/20 01:45:42;;;;;;;13.32;7.45;;;4.50;95.50;;;;;;4991994;28;20023;-88
2022/03/20 01:48:09;;;;;;;19.00;8.63;;;4.40;95.50;;;;;;4989121;28;20453;-88
2022/03/20 01:50:35;;;;;;;20.67;9.93;;;4.40;95.50;;;;;;4991897;28;20023;-89
2022/03/20 01:53:01;;;;;;;16.52;8.35;;;4.40;95.70;;;;;;4983707;28;20026;-88
2022/03/20 01:55:28;;;;;;;19.80;9.75;;;4.40;95.90;;;;;;4992668;28;20042;-88
2022/03/20 01:57:54;;;;;;;18.30;10.57;;;4.40;96.00;;;;;;4991920;28;20038;-89
2022/03/20 02:00:21;;;;;;;16.67;9.80;;;4.40;95.90;;;;;;4992650;28;20074;-89
2022/03/20 02:02:47;;;;;;;18.10;10.15;;;4.30;95.90;;;;;;4981538;28;20037;-88
2022/03/20 02:05:14;;;;;;;19.15;9.38;;;4.30;96.00;;;;;;4990591;28;20113;-89
2022/03/20 02:07:40;;;;;;;19.95;10.82;;;4.20;96.10;;;;;;4990516;28;20030;-89
2022/03/20 02:10:07;;;;;;;20.90;11.25;;;4.20;96.20;;;;;;4981375;28;20474;-88
2022/03/20 02:12:35;;;;;;;20.45;11.60;;;4.20;96.40;;;;;;4994522;28;20030;-88
2022/03/20 02:15:01;;;;;;;20.17;10.93;;;4.20;96.50;;;;;;4993035;28;20026;-89
2022/03/20 02:17:29;;;;;;;21.67;11.38;;;4.10;96.80;;;;;;4989770;28;20038;-88
2022/03/20 02:19:59;;;;;;;20.75;11.20;;;4.10;96.90;;;;;;4995144;28;20034;-89
2022/03/20 02:22:25;;;;;;;22.25;11.30;;;4.00;97.10;;;;;;4992055;28;20018;-89
2022/03/20 02:24:52;;;;;;;20.25;11.52;;;4.00;97.30;;;;;;4987539;28;20038;-89
2022/03/20 02:27:25;;;;;;;16.52;10.10;;;4.00;97.40;;;;;;4993076;28;20038;-89
2022/03/20 02:29:56;;;;;;;17.40;10.23;;;4.00;98.10;;;;;;4993366;28;20065;-89
2022/03/20 02:32:23;;;;;;;20.40;10.02;;;4.00;98.10;;;;;;4993410;28;20023;-89
2022/03/20 02:34:50;;;;;;;17.42;8.93;;;3.90;98.40;;;;;;4989755;28;20045;-88
2022/03/20 02:37:22;;;;;;;21.25;10.60;;;3.90;98.60;;;;;;4993086;28;20112;-88
2022/03/20 02:39:49;;;;;;;20.38;10.02;;;3.90;98.80;;;;;;4979677;28;20489;-89
2022/03/20 02:42:18;;;;;;;19.70;9.73;;;3.90;99.10;;;;;;4984016;28;20457;-89
2022/03/20 02:44:56;;;;;;;17.80;9.27;;;3.90;99.30;;;;;;4988981;28;20045;-89
2022/03/20 02:47:23;;;;;;;16.33;8.05;;;3.90;99.70;;;;;;4990965;28;20023;-89
2022/03/20 02:50:00;;;;;;;17.50;8.50;;;3.90;99.80;;;;;;4988392;28;20475;-89
2022/03/20 02:52:28;;;;;;;18.23;9.82;;;3.90;99.90;;;;;;5004336;28;20049;-89
2022/03/20 02:55:03;;;;;;;16.63;9.23;;;3.90;99.90;;;;;;4994872;28;20120;-88
2022/03/20 02:57:30;;;;;;;16.35;8.35;;;3.90;99.90;;;;;;4991254;28;20038;-89
2022/03/20 03:00:00;;;;;;;17.50;8.90;;;3.90;99.90;;;;;;4984900;28;20034;-89
2022/03/20 03:02:29;;;;;;;15.52;8.07;;;3.90;99.90;;;;;;4995454;28;20041;-89
2022/03/20 03:04:57;;;;;;;15.35;8.63;;;3.90;99.90;;;;;;4988919;28;20054;-89
2022/03/20 03:07:23;;;;;;;17.70;8.23;;;3.80;99.90;;;;;;4989519;28;20032;-89
2022/03/20 03:12:32;;;;;;;16.25;8.48;;;3.80;99.90;;;;;;4990857;28;20153;-89
2022/03/20 03:17:42;;;;;;;18.90;8.38;;;3.80;99.90;;;;;;4988248;28;20442;-88
2022/03/20 03:20:08;;;;;;;19.98;8.13;;;3.70;99.90;;;;;;4982393;28;20026;-89
2022/03/20 03:22:33;;;;;;;14.43;7.43;;;3.70;99.90;;;;;;4987451;28;20475;-89
2022/03/20 03:24:59;;;;;;;15.52;7.07;;;3.70;99.90;;;;;;4995268;28;20121;-88
2022/03/20 03:27:24;;;;;;;13.68;7.93;;;3.60;99.90;;;;;;4994518;28;20557;-88
2022/03/20 03:29:51;;;;;;;13.23;7.15;;;3.60;99.90;;;;;;4995348;28;20050;-88
2022/03/20 03:32:17;;;;;;;13.98;7.60;;;3.60;99.90;;;;;;4989035;28;20033;-89
2022/03/20 03:37:27;;;;;;;18.85;8.43;;;3.60;99.90;;;;;;4987667;28;20541;-89
2022/03/20 03:39:53;;;;;;;12.45;6.93;;;3.60;99.90;;;;;;4985369;28;20034;-89
2022/03/20 03:42:19;;;;;;;15.07;7.90;;;3.50;99.90;;;;;;4995124;28;20088;-89
2022/03/20 03:44:45;;;;;;;14.85;7.57;;;3.60;99.90;;;;;;4987266;28;20121;-88
2022/03/20 03:47:11;;;;;;;19.17;8.93;;;3.50;99.90;;;;;;4987643;28;20549;-89
2022/03/20 03:49:36;;;;;;;12.77;7.82;;;3.50;99.90;;;;;;4976010;28;20166;-89
2022/03/20 03:52:03;;;;;;;16.70;8.38;;;3.50;99.90;;;;;;4992804;28;20027;-89
2022/03/20 03:54:29;;;;;;;19.08;9.88;;;3.50;99.90;;;;;;4990960;28;20126;-88
2022/03/20 03:56:55;;;;;;;22.98;9.70;;;3.50;99.90;;;;;;4989035;28;20027;-89
2022/03/20 03:59:21;;;;;;;19.67;9.77;;;3.50;99.90;;;;;;4995175;28;20044;-89
2022/03/20 04:01:47;;;;;;;17.58;8.35;;;3.50;99.90;;;;;;4991556;28;20376;-89
2022/03/20 04:04:12;;;;;;;15.27;9.43;;;3.50;99.90;;;;;;4993361;28;20033;-89
2022/03/20 04:06:38;;;;;;;20.17;8.75;;;3.50;99.90;;;;;;4998048;28;20918;-89
2022/03/20 04:09:04;;;;;;;16.85;8.40;;;3.40;99.90;;;;;;4991025;28;20437;-89
2022/03/20 04:11:30;;;;;;;14.75;8.05;;;3.40;99.90;;;;;;4978546;28;20048;-89
2022/03/20 04:13:56;;;;;;;21.48;7.95;;;3.40;99.90;;;;;;4985318;28;20130;-89
2022/03/20 04:16:22;;;;;;;17.92;8.45;;;3.40;99.90;;;;;;4993991;28;20092;-89
2022/03/20 04:18:47;;;;;;;18.88;9.02;;;3.40;99.90;;;;;;4994736;28;20042;-89
2022/03/20 04:21:13;;;;;;;18.00;9.32;;;3.40;99.90;;;;;;5009375;28;20025;-89
2022/03/20 04:23:49;;;;;;;17.27;9.18;;;3.30;99.90;;;;;;4975316;28;20033;-89
2022/03/20 04:26:22;;;;;;;21.65;10.43;;;3.30;99.90;;;;;;4976774;28;20113;-89
2022/03/20 04:28:50;;;;;;;19.83;9.65;;;3.40;99.90;;;;;;4984643;28;20039;-89
2022/03/20 04:31:16;;;;;;;15.48;9.50;;;3.40;99.90;;;;;;4978056;28;20486;-88
2022/03/20 04:33:53;;;;;;;15.80;9.23;;;3.50;99.90;;;;;;4981063;28;20510;-89
2022/03/20 04:36:27;;;;;;;18.45;10.50;;;3.60;99.90;;;;;;4993431;28;20453;-89
2022/03/20 04:38:59;;;;;;;18.60;10.30;;;3.70;99.90;;;;;;4993351;28;20085;-89
2022/03/20 04:41:25;;;;;;;19.23;10.53;;;3.70;99.90;;;;;;4989466;28;20475;-89
2022/03/20 04:43:51;;;;;;;24.88;10.98;;;3.80;99.90;;;;;;4975864;28;20031;-88
2022/03/20 04:46:17;;;;;;;19.25;10.35;;;3.90;99.90;;;;;;4988546;28;20057;-89
2022/03/20 04:59:39;;;;;;;22.38;10.93;;;4.10;99.90;;;;;;4985103;28;20166;-89
2022/03/20 05:02:05;;;;;;;18.08;10.30;;;4.20;99.90;;;;;;4985781;28;20113;-89
2022/03/20 05:04:31;;;;;;;22.60;11.77;;;4.20;99.90;;;;;;4993378;28;20143;-89
2022/03/20 05:06:56;;;;;;;19.45;11.13;;;4.20;99.90;;;;;;4988815;28;20387;-89
2022/03/20 05:14:50;;;;;;;22.10;11.43;;;4.30;99.90;;;;;;4985496;28;20038;-89
2022/03/20 05:17:15;;;;;;;16.35;9.63;;;4.30;99.90;;;;;;4991078;28;20019;-89
2022/03/20 05:19:41;;;;;;;19.90;11.52;;;4.40;99.90;;;;;;4992771;28;20113;-89
2022/03/20 05:22:10;;;;;;;19.60;10.50;;;4.40;99.90;;;;;;5004540;28;20022;-89
2022/03/20 05:24:36;;;;;;;23.92;11.23;;;4.40;99.90;;;;;;4981400;28;20169;-90
2022/03/20 05:27:03;;;;;;;20.50;11.23;;;4.40;99.90;;;;;;4992996;28;20498;-89
2022/03/20 05:29:29;;;;;;;25.33;12.32;;;4.40;99.90;;;;;;4988710;28;20073;-89
2022/03/20 05:31:55;;;;;;;18.38;10.27;;;4.40;99.90;;;;;;4988682;28;20035;-89
2022/03/20 05:34:22;;;;;;;21.38;11.98;;;4.50;99.90;;;;;;4991878;28;20023;-89
2022/03/20 05:36:48;;;;;;;21.00;11.70;;;4.50;99.90;;;;;;4995235;28;20034;-89
2022/03/20 05:39:14;;;;;;;20.90;11.45;;;4.50;99.90;;;;;;4991872;28;20030;-90
2022/03/20 05:41:50;;;;;;;22.27;11.52;;;4.50;99.70;;;;;;4987348;28;20049;-89
2022/03/20 05:44:17;;;;;;;18.98;11.65;;;4.60;99.60;;;;;;4987735;28;20026;-89
2022/03/20 05:46:46;;;;;;;21.50;12.10;;;4.60;99.30;;;;;;4990131;28;20037;-89
2022/03/20 05:49:15;;;;;;;21.77;12.05;;;4.60;98.90;;;;;;4984292;28;20125;-89
2022/03/20 05:51:42;;;;;;;23.02;12.38;;;4.60;98.60;;;;;;4976804;28;20027;-89
2022/03/20 05:54:08;;;;;;;23.10;12.13;;;4.60;98.30;;;;;;4989902;28;20451;-89
2022/03/20 05:59:18;;;;;;;19.88;11.50;;;4.60;97.90;;;;;;4996043;28;20061;-89
2022/03/20 06:01:44;;;;;;;22.13;12.07;;;4.60;97.70;;;;;;4979944;28;20026;-89
2022/03/20 06:04:10;;;;;;;21.88;11.73;;;4.50;97.60;;;;;;4989099;28;20085;-89
2022/03/20 06:06:37;;;;;;;21.85;11.68;;;4.50;97.50;;;;;;4992494;28;20041;-89
2022/03/20 06:09:06;;;;;;;24.73;12.27;;;4.50;97.30;;;;;;4988862;28;20475;-89
2022/03/20 06:11:35;;;;;;;24.45;13.15;;;4.50;97.20;;;;;;4979229;28;20035;-88
2022/03/20 06:14:02;;;;;;;22.02;12.50;;;4.50;96.70;;;;;;4997085;28;20026;-88
2022/03/20 06:16:28;;;;;;;20.88;12.32;;;4.50;96.50;;;;;;4994010;28;20073;-88
2022/03/20 06:18:57;;;;;;;24.08;12.23;;;4.50;96.50;;;;;;4985148;28;20039;-88
2022/03/20 06:21:23;;;;;;;21.38;11.65;;;4.50;96.50;;;;;;4984278;28;20030;-88
2022/03/20 06:23:49;;;;;;;21.45;12.43;;;4.40;96.60;;;;;;4988662;28;20030;-88
2022/03/20 06:26:17;;;;;;;20.77;12.00;;;4.30;96.70;;;;;;4992496;28;20026;-88
2022/03/20 06:28:43;;;;;;;21.83;11.68;;;4.30;96.80;;;;;;4988894;28;20039;-88
2022/03/20 06:31:12;;;;;;;25.60;12.90;;;4.20;96.90;;;;;;4988223;28;20430;-89
2022/03/20 06:33:41;;;;;;;21.25;11.88;;;4.20;97.00;;;;;;5011771;28;20120;-88
2022/03/20 06:36:07;;;;;;;23.33;11.82;;;4.20;97.10;;;;;;4992963;28;20022;-89
2022/03/20 06:38:36;;;;;;;23.50;12.57;;;4.10;97.00;;;;;;4988207;28;20042;-89
2022/03/20 06:41:03;;;;;;;22.42;11.70;;;4.10;97.00;;;;;;4986733;28;20024;-88
2022/03/20 06:43:29;;;;;;;23.45;12.15;;;4.20;96.90;;;;;;4991953;28;20076;-89
2022/03/20 06:45:55;;;;;;;25.10;12.02;;;4.20;96.80;;;;;;4988193;28;20034;-89
2022/03/20 06:48:21;;;;;;;23.63;11.80;;;4.20;96.60;;;;;;4985115;28;20100;-88
2022/03/20 06:50:47;;;;;;;25.02;12.60;;;4.20;96.50;;;;;;4987974;28;20106;-88
2022/03/20 06:53:12;;;;;;;21.55;12.23;;;4.20;96.40;;;;;;4983541;28;20074;-89
2022/03/20 06:55:39;;;;;;;22.90;12.20;;;4.20;96.50;;;;;;4981412;28;20022;-88
2022/03/20 06:58:05;;;;;;;21.42;12.07;;;4.20;96.40;;;;;;4992356;28;20039;-89
2022/03/20 07:00:31;;;;;;;23.45;12.57;;;4.30;96.30;;;;;;4988953;28;20388;-89
2022/03/20 07:02:58;;;;;;;25.60;12.73;;;4.30;96.20;;;;;;4991438;28;20030;-89
2022/03/20 07:05:24;;;;;;;25.92;13.18;;;4.30;96.00;;;;;;4991116;28;20120;-89
2022/03/20 07:07:50;;;;;;;23.90;12.30;;;4.40;95.80;;;;;;4991644;28;20027;-89
2022/03/20 07:10:21;;;;;;;22.73;12.02;;;4.40;95.70;;;;;;4988661;28;20105;-89
2022/03/20 07:12:46;;;;;;;22.35;12.80;;;4.50;95.40;;;;;;4986913;28;20030;-89
2022/03/20 07:15:12;;;;;;;18.98;11.60;;;4.50;95.20;;;;;;4990845;28;20157;-88
2022/03/20 07:17:38;;;;;;;23.95;13.32;;;4.50;95.10;;;;;;4987478;28;20034;-93
2022/03/20 07:20:09;;;;;;;21.75;12.63;;;4.40;94.80;;;;;;4982648;28;20031;-88
2022/03/20 07:22:35;;;;;;;24.70;13.18;;;4.50;94.80;;;;;;5001951;28;20054;-88
2022/03/20 07:29:29;;;;;;;24.98;12.68;;;4.60;94.80;;;;;;4985864;28;20065;-89
2022/03/20 07:30:30;;;;;;;24.13;12.70;;;4.70;94.20;;;;;;4986223;28;20100;-88
2022/03/20 07:32:55;;;;;;;24.83;13.15;;;4.80;93.80;;;;;;4990242;28;20475;-90
2022/03/20 07:35:21;;;;;;;21.13;12.80;;;4.90;93.70;;;;;;4987358;28;20072;-89
2022/03/20 07:37:46;;;;;;;21.73;11.90;;;5.00;93.50;;;;;;4989010;28;20085;-89
2022/03/20 07:40:12;;;;;;;21.40;12.20;;;5.10;93.20;;;;;;4987405;28;20022;-88
2022/03/20 07:42:38;;;;;;;21.77;12.20;;;5.20;93.00;;;;;;4993812;28;20034;-88
2022/03/20 07:45:04;;;;;;;25.20;12.73;;;5.40;92.30;;;;;;4992657;28;20188;-88
2022/03/20 07:47:30;;;;;;;26.55;13.88;;;5.50;92.00;;;;;;4985051;28;20395;-88
2022/03/20 07:49:55;;;;;;;21.17;12.32;;;5.60;91.00;;;;;;4992044;28;20026;-89
2022/03/20 07:52:22;;;;;;;24.10;13.43;;;5.60;90.40;;;;;;4993791;28;20045;-88
2022/03/20 07:54:48;;;;;;;25.52;14.38;;;5.60;88.90;;;;;;4985180;28;20019;-88
2022/03/20 07:57:14;;;;;;;19.88;11.18;;;5.70;87.90;;;;;;4993157;28;20033;-87
2022/03/20 07:59:41;;;;;;;24.13;13.25;;;5.80;85.80;;;;;;4994095;28;20966;-87
2022/03/20 08:02:06;;;;;;;21.58;10.02;;;5.90;85.30;;;;;;4989959;28;20325;-87
2022/03/20 08:04:32;;;;;;;23.88;12.85;;;6.00;83.20;;;;;;4991043;28;20049;-88
2022/03/20 08:06:58;;;;;;;23.10;12.98;;;6.10;80.90;;;;;;4994564;28;20125;-89
2022/03/20 08:09:27;;;;;;;22.88;13.25;;;6.10;80.50;;;;;;4993722;28;20049;-88
2022/03/20 08:11:53;;;;;;;24.70;13.70;;;6.10;79.80;;;;;;4993489;28;20029;-88
2022/03/20 08:14:19;;;;;;;23.33;12.63;;;6.00;79.60;;;;;;4983583;28;20418;-88
2022/03/20 08:16:44;;;;;;;24.38;13.77;;;6.00;78.60;;;;;;4985576;28;20026;-87
2022/03/20 08:19:11;;;;;;;23.88;13.82;;;5.90;78.60;;;;;;4989754;28;20046;-87
2022/03/20 08:21:39;;;;;;;23.45;13.52;;;5.90;78.40;;;;;;4988587;28;20420;-87
2022/03/20 08:24:05;;;;;;;23.95;12.52;;;5.90;77.80;;;;;;4994341;28;20030;-87
2022/03/20 08:26:32;;;;;;;26.70;13.23;;;5.90;77.60;;;;;;4994120;28;20022;-86
2022/03/20 08:29:01;;;;;;;26.02;13.27;;;5.90;77.80;;;;;;4992775;28;20138;-87
2022/03/20 08:31:27;;;;;;;25.58;13.60;;;6.00;77.30;;;;;;4989191;28;20498;-87
2022/03/20 08:33:53;;;;;;;25.27;14.07;;;6.00;76.30;;;;;;4992002;28;20062;-87
2022/03/20 08:36:18;;;;;;;29.60;14.43;;;6.10;75.60;;;;;;4992241;28;20022;-87
2022/03/20 08:38:44;;;;;;;23.10;13.60;;;6.10;76.00;;;;;;5002747;28;20039;-87
2022/03/20 08:41:10;;;;;;;26.42;13.27;;;6.20;75.90;;;;;;4992564;28;20026;-87
2022/03/20 08:43:35;;;;;;;25.60;14.45;;;6.40;76.10;;;;;;4983674;28;20464;-87
2022/03/20 08:46:01;;;;;;;30.20;14.00;;;6.50;74.90;;;;;;4977432;28;20122;-87
2022/03/20 08:48:26;;;;;;;26.80;14.52;;;6.50;73.90;;;;;;4981693;28;20027;-87
2022/03/20 08:50:52;;;;;;;23.00;14.07;;;6.50;74.40;;;;;;4992988;28;20162;-87
2022/03/20 08:53:19;;;;;;;23.25;13.63;;;6.60;75.00;;;;;;4992252;28;20023;-88
2022/03/20 08:55:46;;;;;;;25.42;14.32;;;6.70;74.20;;;;;;4988119;28;20084;-87
2022/03/20 08:58:11;;;;;;;23.90;13.27;;;6.70;73.30;;;;;;4989338;28;20038;-88
2022/03/20 09:00:38;;;;;;;23.52;14.13;;;6.70;72.70;;;;;;4987140;28;20022;-88
2022/03/20 09:03:03;;;;;;;29.58;15.05;;;6.70;72.90;;;;;;4979750;28;20041;-88
2022/03/20 09:05:29;;;;;;;25.85;13.98;;;6.60;72.70;;;;;;4981021;28;20158;-87
2022/03/20 09:07:57;;;;;;;25.38;13.93;;;6.60;71.50;;;;;;4987861;28;20026;-88
2022/03/20 09:10:23;;;;;;;25.85;15.07;;;6.60;71.50;;;;;;4999888;28;20467;-87
2022/03/20 09:12:49;;;;;;;23.58;14.90;;;6.70;71.90;;;;;;4984832;28;20056;-88
2022/03/20 09:15:17;;;;;;;22.77;13.63;;;6.70;72.10;;;;;;4987297;28;20025;-88
2022/03/20 09:20:30;;;;;;;27.15;14.85;;;7.00;72.20;;;;;;4983323;28;20104;-86
2022/03/20 09:22:56;;;;;;;27.65;14.88;;;7.10;71.40;;;;;;4981270;28;20034;-88
2022/03/20 09:25:22;;;;;;;26.13;14.07;;;7.20;71.10;;;;;;4981944;28;20503;-90
2022/03/20 09:27:48;;;;;;;25.77;14.70;;;7.40;70.70;;;;;;4983784;28;20057;-88
2022/03/20 09:30:15;;;;;;;24.17;14.57;;;7.50;70.80;;;;;;4985913;28;20054;-88
2022/03/20 09:32:41;;;;;;;26.35;15.02;;;7.50;69.90;;;;;;4981177;28;20029;-88
2022/03/20 09:35:07;;;;;;;24.80;14.13;;;7.60;69.50;;;;;;4980784;28;20121;-88
2022/03/20 09:37:32;;;;;;;27.10;15.73;;;7.70;69.60;;;;;;4989618;28;20113;-88
2022/03/20 09:39:58;;;;;;;29.42;15.95;;;7.80;68.20;;;;;;4978732;28;20031;-88
2022/03/20 09:42:23;;;;;;;22.10;13.48;;;7.90;69.00;;;;;;4990520;28;20398;-88
2022/03/20 09:44:50;;;;;;;26.33;15.10;;;8.30;69.00;;;;;;4986169;28;20042;-86
2022/03/20 09:47:19;;;;;;;27.33;15.68;;;8.50;67.40;;;;;;4992596;28;20034;-87
2022/03/20 09:49:47;;;;;;;28.73;16.38;;;8.60;66.90;;;;;;4990776;28;20026;-88
2022/03/20 09:52:14;;;;;;;24.55;15.48;;;8.60;65.60;;;;;;4983938;28;20514;-88
2022/03/20 09:54:40;;;;;;;28.70;15.45;;;8.60;65.30;;;;;;4978025;28;20053;-88
2022/03/20 09:57:08;;;;;;;30.65;16.08;;;8.60;64.70;;;;;;4999260;28;20109;-88
2022/03/20 09:59:36;;;;;;;24.40;15.10;;;8.60;65.00;;;;;;4988280;28;20050;-88
2022/03/20 10:02:11;;;;;;;26.83;16.15;;;8.70;66.00;;;;;;4980230;28;20023;-88
2022/03/20 10:04:55;;;;;;;27.92;15.63;;;8.80;65.10;;;;;;4991826;28;20402;-88
2022/03/20 10:07:22;;;;;;;27.35;16.38;;;8.90;64.70;;;;;;4992868;28;20050;-88
2022/03/20 10:10:08;;;;;;;29.83;17.67;;;9.10;64.60;;;;;;4982504;28;21106;-88
2022/03/20 10:12:35;;;;;;;25.23;16.70;;;9.10;64.20;;;;;;4976115;28;20039;-86
2022/03/20 10:15:02;;;;;;;26.15;15.55;;;9.10;63.90;;;;;;4982455;28;20034;-88
2022/03/20 10:17:28;;;;;;;26.33;15.40;;;9.10;64.30;;;;;;4988482;28;20419;-88
2022/03/20 10:20:11;;;;;;;29.13;15.52;;;9.10;64.60;;;;;;4980168;28;20066;-88
2022/03/20 10:22:36;;;;;;;28.63;15.52;;;9.10;64.70;;;;;;4979009;28;20399;-88
2022/03/20 10:25:02;;;;;;;24.35;16.45;;;9.10;64.30;;;;;;4984094;28;20035;-87
2022/03/20 10:27:27;;;;;;;25.15;16.10;;;9.10;63.80;;;;;;4983553;28;20022;-89
2022/03/20 10:29:57;;;;;;;26.67;17.13;;;9.10;64.50;;;;;;4985788;28;20047;-88
2022/03/20 10:32:23;;;;;;;31.15;17.35;;;9.10;64.10;;;;;;4975967;28;20026;-88
2022/03/20 10:34:55;;;;;;;25.38;15.32;;;9.10;64.20;;;;;;4982266;28;20491;-88
2022/03/20 10:37:44;;;;;;;31.63;18.40;;;9.20;64.50;;;;;;4986837;28;20026;-88
2022/03/20 10:40:12;;;;;;;26.02;16.25;;;9.20;63.30;;;;;;4982934;28;20042;-88
2022/03/20 10:42:37;;;;;;;27.52;16.25;;;9.20;64.30;;;;;;4990833;28;20061;-88
2022/03/20 10:45:07;;;;;;;26.65;16.10;;;9.20;64.60;;;;;;4996216;28;20061;-88
2022/03/20 10:47:33;;;;;;;25.67;17.10;;;9.20;64.80;;;;;;4990756;28;20031;-88
2022/03/20 10:50:10;;;;;;;26.98;16.55;;;9.20;64.70;;;;;;4984493;28;20034;-89
2022/03/20 10:52:36;;;;;;;29.95;19.02;;;9.10;65.00;;;;;;4985799;28;20026;-88
2022/03/20 10:55:12;;;;;;;30.75;18.02;;;9.10;65.20;;;;;;4987852;28;20038;-89
2022/03/20 10:57:39;;;;;;;35.10;18.63;;;9.00;65.20;;;;;;4988107;28;20022;-88
2022/03/20 11:00:14;;;;;;;32.90;18.25;;;9.00;65.60;;;;;;5002729;28;20026;-87
2022/03/20 11:02:41;;;;;;;31.48;19.65;;;9.10;66.00;;;;;;4988888;28;20391;-87
2022/03/20 11:05:08;;;;;;;29.45;19.75;;;9.10;66.10;;;;;;4985283;28;20023;-88
2022/03/20 11:07:34;;;;;;;29.60;18.40;;;9.10;66.70;;;;;;4987126;28;20104;-88
2022/03/20 11:10:00;;;;;;;33.35;20.05;;;9.10;67.50;;;;;;4988270;28;20085;-89
2022/03/20 11:12:29;;;;;;;36.28;21.50;;;9.30;68.20;;;;;;4992155;28;20030;-88
2022/03/20 11:14:59;;;;;;;33.97;21.08;;;9.50;68.00;;;;;;4988926;28;20570;-89
2022/03/20 11:17:31;;;;;;;33.83;21.67;;;9.60;68.00;;;;;;4989021;28;20030;-88
2022/03/20 11:19:57;;;;;;;34.90;21.63;;;9.50;67.60;;;;;;4988420;28;20038;-89
2022/03/20 11:22:24;;;;;;;33.55;20.98;;;9.50;68.20;;;;;;4984040;28;20147;-88
2022/03/20 11:24:52;;;;;;;36.53;20.27;;;9.40;68.80;;;;;;4983390;28;20064;-88
2022/03/20 11:27:31;;;;;;;34.90;20.80;;;9.40;69.20;;;;;;5007179;28;20022;-88
2022/03/20 11:30:09;;;;;;;34.88;21.50;;;9.50;69.20;;;;;;4983769;28;20141;-88
2022/03/20 11:32:35;;;;;;;34.33;21.85;;;9.30;69.60;;;;;;4995705;28;20034;-88
2022/03/20 11:35:05;;;;;;;36.53;22.17;;;9.20;70.00;;;;;;4994578;28;20121;-88
2022/03/20 11:37:47;;;;;;;36.30;23.10;;;9.10;70.90;;;;;;4995671;28;20034;-88
2022/03/20 11:40:22;;;;;;;31.73;21.35;;;9.10;71.10;;;;;;4984831;28;20089;-88
2022/03/20 11:42:49;;;;;;;35.22;21.45;;;9.10;71.50;;;;;;4992185;28;20060;-88
2022/03/20 11:45:17;;;;;;;35.10;21.75;;;9.10;71.90;;;;;;4987959;28;20427;-89
2022/03/20 11:47:44;;;;;;;39.35;24.80;;;9.10;72.10;;;;;;4986077;28;20022;-87
2022/03/20 11:50:25;;;;;;;38.05;22.90;;;9.10;72.50;;;;;;4983976;28;20054;-88
2022/03/20 11:53:04;;;;;;;34.72;22.30;;;9.10;72.90;;;;;;4979025;28;20023;-88
2022/03/20 11:55:50;;;;;;;34.72;21.95;;;9.10;73.10;;;;;;4986199;28;20034;-88
2022/03/20 11:58:22;;;;;;;33.42;21.75;;;9.20;73.30;;;;;;4987847;28;20038;-87
2022/03/20 12:01:07;;;;;;;34.70;22.02;;;9.30;73.30;;;;;;4987026;28;20030;-88
2022/03/20 12:04:03;;;;;;;35.05;22.23;;;9.30;73.10;;;;;;4993838;28;20076;-86
2022/03/20 12:06:58;;;;;;;37.00;23.90;;;9.50;73.00;;;;;;4994298;28;20041;-88
2022/03/20 12:09:49;;;;;;;34.55;22.33;;;9.60;72.80;;;;;;5003493;28;20038;-88
2022/03/20 12:12:27;;;;;;;38.45;22.77;;;9.70;72.40;;;;;;4989032;28;20029;-88
2022/03/20 12:14:56;;;;;;;35.47;22.58;;;9.70;72.20;;;;;;4989422;28;20434;-88
2022/03/20 12:17:22;;;;;;;33.75;20.63;;;9.70;72.40;;;;;;4994672;28;20026;-88
2022/03/20 12:19:53;;;;;;;33.35;21.23;;;9.80;72.30;;;;;;4993682;28;20042;-88
2022/03/20 12:22:18;;;;;;;36.92;22.48;;;9.90;72.20;;;;;;4986549;28;20430;-88
2022/03/20 12:24:49;;;;;;;34.30;22.65;;;9.90;71.90;;;;;;4983945;28;20031;-87
2022/03/20 12:27:23;;;;;;;38.28;23.60;;;10.00;72.00;;;;;;4989409;28;20057;-88
2022/03/20 12:30:15;;;;;;;37.35;23.27;;;10.00;71.60;;;;;;4990870;28;20046;-88
2022/03/20 12:32:47;;;;;;;37.50;23.33;;;10.10;71.70;;;;;;4950391;28;20039;-87
2022/03/20 12:35:15;;;;;;;31.98;20.35;;;10.30;71.70;;;;;;4990434;28;20328;-88
2022/03/20 12:37:42;;;;;;;34.88;20.52;;;10.30;71.20;;;;;;4991478;28;20026;-87
2022/03/20 12:40:21;;;;;;;36.28;21.52;;;10.40;70.60;;;;;;4987738;28;20032;-88
2022/03/20 12:42:55;;;;;;;33.78;21.05;;;10.40;70.20;;;;;;4978219;28;20467;-88
2022/03/20 12:45:21;;;;;;;34.67;21.23;;;10.50;69.50;;;;;;5004715;28;20434;-89
2022/03/20 12:47:57;;;;;;;34.60;21.80;;;10.40;68.90;;;;;;4987618;28;20026;-88
2022/03/20 12:50:26;;;;;;;34.92;20.88;;;10.40;68.80;;;;;;4979398;28;20063;-89
2022/03/20 12:53:01;;;;;;;35.00;22.00;;;10.30;68.80;;;;;;4982732;28;20560;-89
2022/03/20 12:55:27;;;;;;;33.67;21.05;;;10.20;69.10;;;;;;4992498;28;20446;-88
2022/03/20 12:57:53;;;;;;;37.00;22.00;;;10.20;69.50;;;;;;4984496;28;20057;-87
2022/03/20 13:00:22;;;;;;;32.42;19.83;;;10.20;69.20;;;;;;4994035;28;20093;-87
2022/03/20 13:03:07;;;;;;;34.30;21.45;;;10.20;68.70;;;;;;4988428;28;20049;-87
2022/03/20 13:05:38;;;;;;;36.97;20.98;;;10.00;68.00;;;;;;4990267;28;20042;-88
2022/03/20 13:08:05;;;;;;;30.10;19.38;;;9.90;67.80;;;;;;4991225;28;20379;-88
2022/03/20 13:10:39;;;;;;;32.95;20.23;;;9.80;68.10;;;;;;4990992;28;20034;-88
2022/03/20 13:13:06;;;;;;;33.95;20.08;;;9.70;68.40;;;;;;4996590;28;20030;-88
2022/03/20 13:15:34;;;;;;;30.70;18.50;;;9.60;68.40;;;;;;4993228;28;20042;-89
2022/03/20 13:18:01;;;;;;;36.97;22.85;;;9.60;68.40;;;;;;4988054;28;20254;-88